Time;durP1;ratioP1;P1;durP2;ratioP2;P2;SDS_P1;SDS_P2;PMS_P1;PMS_P2;Temp;Humidity;BMP_temperature;BMP_pressure;BME280_temperature;BME280_humidity;BME280_pressure;Samples;Min_cycle;Max_cycle;Signal;HPM_P1;HPM_P2
2024/01/08 00:01:23;;;;;;;7.35;5.00;;;;;;;5.71;83.22;101153.34;10416334;28;97293;-79
2024/01/08 00:06:27;;;;;;;10.07;5.63;;;;;;;5.73;83.86;101168.09;10416688;27;96707;-79
2024/01/08 00:11:31;;;;;;;9.38;5.28;;;;;;;5.71;83.66;101162.00;10421579;28;96641;-79
2024/01/08 00:16:36;;;;;;;9.73;5.07;;;;;;;5.49;85.26;101165.63;10411894;28;97028;-78
2024/01/08 00:21:41;;;;;;;9.55;5.18;;;;;;;5.47;85.03;101163.00;10422988;28;96861;-79
2024/01/08 00:26:44;;;;;;;9.43;5.10;;;;;;;5.24;86.19;101162.22;10422556;27;97019;-79
2024/01/08 00:31:49;;;;;;;9.25;5.03;;;;;;;5.14;88.07;101167.50;10411377;28;96992;-79
2024/01/08 00:36:52;;;;;;;10.80;5.70;;;;;;;5.39;85.95;101163.91;10381328;28;97039;-79
2024/01/08 00:41:56;;;;;;;11.50;5.70;;;;;;;5.33;85.76;101162.19;10380945;28;96969;-79
2024/01/08 00:47:01;;;;;;;8.65;5.20;;;;;;;5.46;85.33;101156.06;10394382;28;97333;-79
2024/01/08 00:52:05;;;;;;;10.85;5.15;;;;;;;5.50;84.24;101149.09;10422017;28;97131;-79
2024/01/08 00:57:09;;;;;;;9.33;5.83;;;;;;;5.39;84.75;101146.53;10421201;28;96679;-79
2024/01/08 01:02:14;;;;;;;7.82;5.07;;;;;;;5.27;85.71;101141.38;10420657;28;96770;-78
2024/01/08 01:07:17;;;;;;;10.50;4.95;;;;;;;5.28;85.56;101137.00;10421182;28;97027;-78
2024/01/08 01:12:21;;;;;;;8.85;4.70;;;;;;;5.34;84.96;101127.41;10455679;27;96827;-79
2024/01/08 01:17:26;;;;;;;9.57;5.03;;;;;;;5.46;84.80;101116.91;10448791;27;96633;-79
2024/01/08 01:22:30;;;;;;;9.95;4.95;;;;;;;5.49;84.41;101124.72;10420704;28;96553;-79
2024/01/08 01:27:34;;;;;;;8.63;4.70;;;;;;;5.49;83.77;101132.56;10420831;27;96674;-79
2024/01/08 01:32:39;;;;;;;8.15;4.53;;;;;;;5.50;83.88;101136.03;10402349;28;96860;-79
2024/01/08 01:37:44;;;;;;;9.10;5.05;;;;;;;5.45;84.01;101143.88;10390268;28;96789;-79
2024/01/08 01:42:49;;;;;;;9.23;4.82;;;;;;;5.43;84.33;101129.13;10420329;28;96999;-79
2024/01/08 01:47:55;;;;;;;8.82;4.68;;;;;;;5.47;84.01;101128.19;10420189;28;96621;-79
2024/01/08 01:52:59;;;;;;;8.60;4.90;;;;;;;5.44;83.16;101128.22;10418835;28;97445;-79
2024/01/08 01:58:03;;;;;;;7.80;4.50;;;;;;;5.42;83.43;101119.53;10419975;28;97510;-79
2024/01/08 02:03:09;;;;;;;6.75;3.95;;;;;;;5.40;83.92;101122.16;10419564;28;96653;-79
2024/01/08 02:08:13;;;;;;;10.18;4.72;;;;;;;5.45;83.50;101109.94;10433181;27;97274;-79
2024/01/08 02:13:17;;;;;;;7.63;4.32;;;;;;;5.42;83.60;101115.19;10436762;27;96665;-79
2024/01/08 02:18:21;;;;;;;7.03;4.32;;;;;;;5.39;83.43;101106.50;10419282;28;97133;-79
2024/01/08 02:23:27;;;;;;;8.70;4.75;;;;;;;5.30;84.01;101098.72;10419351;27;97253;-79
2024/01/08 02:28:30;;;;;;;5.47;3.70;;;;;;;5.34;83.13;101105.66;10419718;28;96598;-79
2024/01/08 02:33:34;;;;;;;8.73;4.30;;;;;;;5.38;83.60;101110.84;10391391;28;96707;-79
2024/01/08 02:38:39;;;;;;;8.35;4.22;;;;;;;5.43;82.46;101100.41;10376290;28;96615;-79
2024/01/08 02:43:42;;;;;;;7.20;4.22;;;;;;;5.39;83.07;101085.63;10376156;28;97310;-79
2024/01/08 02:48:46;;;;;;;7.57;3.88;;;;;;;5.38;82.31;101097.81;10413043;28;96727;-79
2024/01/08 02:53:52;;;;;;;8.30;4.20;;;;;;;5.47;82.70;101089.06;10418289;28;96643;-79
2024/01/08 02:58:55;;;;;;;4.78;3.13;;;;;;;5.44;82.47;101087.34;10418115;28;97186;-79
2024/01/08 03:03:59;;;;;;;6.65;3.15;;;;;;;5.40;82.28;101085.63;10417985;28;97584;-79
2024/01/08 03:09:04;;;;;;;7.25;3.78;;;;;;;5.49;81.74;101077.75;10455930;27;97126;-79
2024/01/08 03:14:07;;;;;;;8.50;4.28;;;;;;;5.47;81.91;101074.28;10459363;27;96657;-79
2024/01/08 03:19:11;;;;;;;8.63;3.80;;;;;;;5.50;81.77;101068.19;10453101;27;96854;-79
2024/01/08 03:24:16;;;;;;;5.50;3.47;;;;;;;5.58;81.10;101067.25;10417462;28;96520;-79
2024/01/08 03:29:19;;;;;;;5.82;3.58;;;;;;;5.58;81.13;101055.94;10416763;28;96693;-79
2024/01/08 03:34:23;;;;;;;5.18;3.13;;;;;;;5.60;81.14;101041.13;10383433;28;97205;-79
2024/01/08 03:39:28;;;;;;;6.93;3.72;;;;;;;5.63;81.22;101036.75;10408765;28;96672;-79
2024/01/08 03:44:32;;;;;;;5.68;3.33;;;;;;;5.67;80.78;101035.00;10421991;27;96678;-79
2024/01/08 03:49:35;;;;;;;6.50;3.53;;;;;;;5.70;79.93;101032.34;10423899;28;96598;-79
2024/01/08 03:54:40;;;;;;;4.85;3.67;;;;;;;5.75;80.39;101025.34;10423760;28;97119;-79
2024/01/08 03:59:44;;;;;;;6.38;3.38;;;;;;;5.77;79.79;101013.16;10423534;28;96782;-79
2024/01/08 04:04:48;;;;;;;6.15;3.30;;;;;;;5.78;79.76;101014.03;10434031;27;96654;-78
2024/01/08 04:09:52;;;;;;;7.40;3.38;;;;;;;5.80;78.76;101009.66;10461618;27;96893;-79
2024/01/08 04:14:56;;;;;;;5.53;3.30;;;;;;;5.78;79.72;101011.41;10423039;28;96802;-79
2024/01/08 04:20:00;;;;;;;9.05;3.28;;;;;;;5.80;79.50;101007.88;10423530;27;97305;-79
2024/01/08 04:25:06;;;;;;;7.20;3.85;;;;;;;5.79;79.51;101021.84;10464092;27;96767;-79
2024/01/08 04:30:10;;;;;;;6.20;3.50;;;;;;;5.79;79.59;101013.13;10432518;27;96718;-79
2024/01/08 04:35:14;;;;;;;7.90;3.70;;;;;;;5.80;79.07;101012.28;10458320;27;96752;-79
2024/01/08 04:40:19;;;;;;;5.07;3.33;;;;;;;5.83;79.13;101001.78;10464338;27;96714;-79
2024/01/08 04:45:22;;;;;;;;;;;;;;;5.84;79.00;101001.78;10447306;27;96601;-79
2024/01/08 04:50:26;;;;;;;5.18;3.30;;;;;;;5.84;78.98;100993.94;10421829;28;96920;-79
2024/01/08 04:55:31;;;;;;;4.65;2.95;;;;;;;5.80;78.85;100996.59;10420759;27;96631;-79
2024/01/08 05:00:35;;;;;;;;;;;;;;;5.80;79.11;100997.44;10422891;28;96623;-79
2024/01/08 05:05:38;;;;;;;5.32;2.78;;;;;;;5.85;78.97;100981.75;10416424;28;97033;-79
2024/01/08 05:10:43;;;;;;;4.90;2.83;;;;;;;5.84;79.24;100969.56;10419291;28;97205;-79
2024/01/08 05:15:47;;;;;;;5.18;2.90;;;;;;;5.84;78.42;100977.41;10420352;28;96673;-79
2024/01/08 05:20:50;;;;;;;4.32;2.42;;;;;;;5.91;78.24;100990.41;10421597;27;96971;-79
2024/01/08 05:25:59;;;;;;;4.47;2.22;;;;;;;5.99;78.14;100983.34;10420287;28;96661;-79
2024/01/08 05:31:03;;;;;;;5.93;2.47;;;;;;;5.99;78.36;100990.31;10421035;28;96648;-79
2024/01/08 05:36:07;;;;;;;4.70;2.47;;;;;;;5.98;78.04;100993.81;10406695;28;96952;-79
2024/01/08 05:41:12;;;;;;;3.75;2.25;;;;;;;5.98;78.06;100991.19;10420417;28;97674;-79
2024/01/08 05:46:19;;;;;;;5.45;2.83;;;;;;;5.94;78.42;100982.53;10420771;28;96954;-78
2024/01/08 05:51:22;;;;;;;4.75;2.78;;;;;;;5.92;78.42;100994.72;10421328;28;97650;-79
2024/01/08 05:56:27;;;;;;;4.53;2.58;;;;;;;5.95;78.21;101005.16;10419643;28;96626;-78
2024/01/08 06:01:31;;;;;;;6.00;2.65;;;;;;;5.96;78.59;100996.44;10446591;27;96671;-79
2024/01/08 06:06:34;;;;;;;5.53;2.50;;;;;;;5.95;78.16;101007.78;10451639;27;96845;-79
2024/01/08 06:11:39;;;;;;;4.55;2.45;;;;;;;5.92;78.35;101007.78;10433644;27;96716;-79
2024/01/08 06:16:43;;;;;;;4.93;2.83;;;;;;;5.89;78.97;101020.00;10419311;28;96542;-79
2024/01/08 06:21:46;;;;;;;4.65;2.70;;;;;;;5.85;78.10;101008.72;10418836;28;96734;-79
2024/01/08 06:26:51;;;;;;;3.58;2.47;;;;;;;5.78;79.03;101003.56;10418738;28;96695;-79
2024/01/08 06:31:55;;;;;;;5.07;2.83;;;;;;;5.70;78.68;100990.56;10418245;28;96641;-79
2024/01/08 06:36:58;;;;;;;4.78;2.33;;;;;;;5.65;78.64;100997.56;10417993;28;97563;-79
2024/01/08 06:42:04;;;;;;;3.58;2.60;;;;;;;5.63;79.29;100992.38;10419343;28;97232;-79
2024/01/08 06:47:07;;;;;;;3.38;2.13;;;;;;;5.65;79.28;100989.75;10404796;28;96658;-79
2024/01/08 06:52:11;;;;;;;4.00;2.42;;;;;;;5.59;79.15;100990.66;10418657;28;97423;-79
2024/01/08 06:57:15;;;;;;;5.35;2.53;;;;;;;5.55;79.43;101002.00;10416860;28;96582;-79
2024/01/08 07:02:19;;;;;;;5.13;2.72;;;;;;;5.55;79.31;101001.16;10429309;27;96740;-79
2024/01/08 07:07:22;;;;;;;3.63;1.88;;;;;;;5.50;79.25;100985.50;10417962;28;97429;-79
2024/01/08 07:12:27;;;;;;;5.47;2.33;;;;;;;5.49;79.74;100973.34;10411841;28;96683;-79
2024/01/08 07:17:31;;;;;;;3.13;1.70;;;;;;;5.42;79.04;100968.16;10400734;27;97581;-79
2024/01/08 07:22:35;;;;;;;4.97;2.38;;;;;;;5.43;79.91;100975.97;10421660;28;97035;-79
2024/01/08 07:27:40;;;;;;;3.00;2.17;;;;;;;5.36;79.57;100953.41;10419532;28;96845;-79
2024/01/08 07:32:43;;;;;;;4.05;2.50;;;;;;;5.43;79.54;100954.25;10415787;28;96973;-79
2024/01/08 07:37:51;;;;;;;3.80;2.20;;;;;;;5.39;80.16;100948.19;10418629;28;96769;-79
2024/01/08 07:42:57;;;;;;;5.32;2.35;;;;;;;5.39;80.19;100942.97;10418905;28;96608;-79
2024/01/08 07:48:01;;;;;;;5.63;2.58;;;;;;;5.45;79.97;100923.81;10417255;28;97331;-79
2024/01/08 07:53:05;;;;;;;4.70;2.37;;;;;;;5.54;78.97;100939.34;10418583;28;97256;-79
2024/01/08 07:58:13;;;;;;;3.60;1.90;;;;;;;5.54;79.04;100944.59;10418206;28;96681;-79
2024/01/08 08:03:18;;;;;;;4.35;2.25;;;;;;;5.61;78.94;100948.88;10418445;28;96610;-79
2024/01/08 08:08:22;;;;;;;3.95;2.60;;;;;;;5.65;79.05;100937.53;10417658;28;96972;-79
2024/01/08 08:13:27;;;;;;;4.90;2.25;;;;;;;5.67;79.14;100933.16;10418602;28;96638;-79
2024/01/08 08:18:30;;;;;;;;;;;;;;;5.63;78.79;100955.81;10417937;28;96688;-79
2024/01/08 08:23:35;;;;;;;3.40;2.10;;;;;;;5.68;78.61;100956.66;10418654;28;96742;-79
2024/01/08 08:28:41;;;;;;;4.00;2.70;;;;;;;5.67;78.26;100946.22;10417637;27;97047;-79
2024/01/08 08:33:45;;;;;;;3.35;2.30;;;;;;;5.66;78.43;100958.41;10417450;28;97216;-79
2024/01/08 08:38:50;;;;;;;4.15;2.45;;;;;;;5.77;78.32;100971.38;10415482;28;97844;-79
2024/01/08 08:43:55;;;;;;;3.63;2.05;;;;;;;5.79;77.66;100960.91;10395997;28;97164;-79
2024/01/08 08:48:58;;;;;;;3.47;2.00;;;;;;;5.78;77.85;100964.41;10375444;28;96812;-79
2024/01/08 08:54:03;;;;;;;4.82;2.65;;;;;;;5.89;77.90;100967.75;10382304;28;97349;-79
2024/01/08 08:59:09;;;;;;;4.53;2.15;;;;;;;5.95;77.64;100971.22;10410003;28;96586;-79
2024/01/08 09:04:12;;;;;;;3.58;2.28;;;;;;;6.04;77.32;100970.25;10375087;28;96703;-79
2024/01/08 09:09:17;;;;;;;2.95;1.85;;;;;;;6.05;77.35;100961.53;10374800;28;97860;-79
2024/01/08 09:14:22;;;;;;;4.30;2.58;;;;;;;6.10;77.14;100965.81;10374925;28;97109;-79
2024/01/08 09:19:25;;;;;;;4.72;2.58;;;;;;;6.17;76.61;100979.69;10374089;28;96589;-79
2024/01/08 09:24:29;;;;;;;4.70;2.75;;;;;;;6.29;76.15;100990.88;10374299;28;96679;-79
2024/01/08 09:29:34;;;;;;;4.72;2.00;;;;;;;6.34;76.21;100996.94;10372666;28;97679;-79
2024/01/08 09:34:37;;;;;;;4.63;2.45;;;;;;;6.41;76.38;100987.25;10389808;28;97384;-79
2024/01/08 09:39:41;;;;;;;4.57;2.38;;;;;;;6.48;75.74;100996.78;10406644;27;97364;-79
2024/01/08 09:44:48;;;;;;;5.13;2.75;;;;;;;6.50;76.16;100995.88;10415160;28;96916;-79
2024/01/08 09:49:51;;;;;;;5.18;3.00;;;;;;;6.44;76.09;100987.22;10414100;27;97000;-79
2024/01/08 09:54:55;;;;;;;4.97;3.05;;;;;;;6.42;75.95;101005.53;10414693;28;96737;-79
2024/01/08 10:00:01;;;;;;;6.95;3.35;;;;;;;6.39;75.96;100994.25;10414909;28;97033;-79
2024/01/08 10:05:07;;;;;;;6.00;3.15;;;;;;;6.47;76.13;100998.50;10414960;28;97257;-79
2024/01/08 10:10:12;;;;;;;6.15;2.72;;;;;;;6.56;76.03;100997.53;10450026;22;96953;-79
2024/01/08 10:15:18;;;;;;;5.25;2.75;;;;;;;6.59;75.51;101003.59;10455465;27;97152;-79
2024/01/08 10:20:22;;;;;;;7.03;2.78;;;;;;;6.67;75.14;100993.94;10454673;27;97360;-79
2024/01/08 10:25:26;;;;;;;5.80;3.28;;;;;;;6.70;74.66;100999.13;10455578;27;96561;-79
2024/01/08 10:30:31;;;;;;;4.00;2.78;;;;;;;6.68;74.58;100992.16;10455966;27;96618;-79
2024/01/08 10:35:36;;;;;;;5.97;3.50;;;;;;;6.75;74.53;100988.59;10455569;27;96665;-79
2024/01/08 10:40:40;;;;;;;5.00;3.20;;;;;;;6.75;74.50;100986.84;10454694;27;97606;-79
2024/01/08 10:45:47;;;;;;;6.55;3.35;;;;;;;6.78;74.06;100975.50;10455914;27;97014;-79
2024/01/08 10:50:54;;;;;;;4.72;2.92;;;;;;;6.78;73.57;100962.41;10453813;27;96641;-78
2024/01/08 10:55:59;;;;;;;10.65;6.70;;;;;;;6.80;74.04;100964.09;10455697;27;97135;-79
2024/01/08 11:01:04;;;;;;;;;;;;;;;6.81;74.13;100967.59;10454388;27;97575;-79
2024/01/08 11:06:08;;;;;;;5.40;3.08;;;;;;;6.86;73.75;100950.13;10454339;27;96622;-79
2024/01/08 11:11:17;;;;;;;6.53;3.17;;;;;;;6.90;74.07;100959.66;10453580;27;97162;-79
2024/01/08 11:16:28;;;;;;;5.53;3.50;;;;;;;6.90;73.36;100950.94;10455028;27;97307;-79
2024/01/08 11:21:34;;;;;;;6.25;3.50;;;;;;;6.99;74.09;100930.75;10454499;27;96706;-79
2024/01/08 11:26:43;;;;;;;5.80;2.92;;;;;;;7.00;73.58;100926.38;10453859;27;97120;-79
2024/01/08 11:32:24;;;;;;;6.38;2.95;;;;;;;7.05;73.49;100916.72;10453836;27;96804;-79
2024/01/08 11:37:33;;;;;;;5.38;3.40;;;;;;;7.07;72.75;100900.13;10453773;27;96824;-79
2024/01/08 11:42:36;;;;;;;6.10;3.42;;;;;;;7.14;73.06;100883.44;10453681;27;97230;-79
2024/01/08 11:47:42;;;;;;;5.45;3.42;;;;;;;7.23;72.81;100887.66;10454505;27;97215;-79
2024/01/08 11:52:46;;;;;;;6.28;3.63;;;;;;;7.28;72.22;100889.31;10453371;27;96735;-79
2024/01/08 11:57:50;;;;;;;7.22;3.75;;;;;;;7.44;72.28;100875.06;10453301;27;96602;-79
2024/01/08 12:03:03;;;;;;;6.10;3.13;;;;;;;7.31;71.73;100870.06;10453330;27;96670;-79
2024/01/08 12:08:08;;;;;;;6.28;3.65;;;;;;;7.39;72.06;100873.44;10459939;27;96881;-79
2024/01/08 12:13:11;;;;;;;7.28;3.75;;;;;;;7.40;71.82;100859.44;10460328;27;96644;-79
2024/01/08 12:18:18;;;;;;;7.20;4.00;;;;;;;7.40;71.45;100844.59;10459942;27;96635;-79
2024/01/08 12:23:21;;;;;;;20.27;9.55;;;;;;;7.49;71.40;100839.19;10459565;27;97312;-79
2024/01/08 12:28:27;;;;;;;7.70;4.40;;;;;;;7.48;71.20;100831.34;10459885;27;96645;-79
2024/01/08 12:33:33;;;;;;;8.15;3.70;;;;;;;7.46;71.40;100815.69;10459766;27;96508;-79
2024/01/08 12:38:37;;;;;;;7.35;4.40;;;;;;;7.47;71.99;100813.94;10459868;27;96576;-79
2024/01/08 12:43:40;;;;;;;6.93;3.90;;;;;;;7.53;71.75;100821.66;10459372;27;97150;-79
2024/01/08 12:48:46;;;;;;;7.93;4.20;;;;;;;7.45;71.77;100800.00;10458736;27;96683;-79
2024/01/08 12:53:49;;;;;;;8.32;4.07;;;;;;;7.37;72.20;100794.06;10457756;27;96662;-79
2024/01/08 12:58:53;;;;;;;7.47;4.07;;;;;;;7.39;72.81;100781.81;10458078;27;96714;-79
2024/01/08 13:03:58;;;;;;;7.80;4.63;;;;;;;7.44;72.62;100790.44;10458243;27;97452;-79
2024/01/08 13:09:03;;;;;;;;;;;;;;;7.51;72.04;100769.31;10457788;27;96774;-79
2024/01/08 13:14:10;;;;;;;4.65;3.42;;;;;;;7.54;71.27;100766.66;10456991;27;96706;-79
2024/01/08 13:19:16;;;;;;;7.60;4.20;;;;;;;7.59;71.54;100774.44;10457550;27;96764;-79
2024/01/08 13:24:20;;;;;;;6.43;4.00;;;;;;;7.79;71.23;100775.75;10458342;27;97212;-79
2024/01/08 13:29:24;;;;;;;6.20;4.45;;;;;;;7.81;71.20;100771.34;10457932;27;97611;-79
2024/01/08 13:34:29;;;;;;;7.05;3.47;;;;;;;7.87;71.12;100738.94;10457240;27;96655;-79
2024/01/08 13:39:32;;;;;;;6.82;3.88;;;;;;;7.98;71.07;100755.28;10457104;27;96879;-79
2024/01/08 13:44:36;;;;;;;7.50;4.22;;;;;;;8.07;70.06;100754.22;10456173;27;96946;-79
2024/01/08 13:49:41;;;;;;;6.10;3.58;;;;;;;8.13;70.33;100757.59;10456662;27;96994;-79
2024/01/08 13:54:45;;;;;;;6.88;4.13;;;;;;;8.06;69.57;100757.75;10457065;27;96654;-79
2024/01/08 13:59:49;;;;;;;7.03;3.95;;;;;;;8.11;69.65;100756.75;10456956;27;96657;-79
2024/01/08 14:04:54;;;;;;;7.90;3.80;;;;;;;8.22;69.81;100752.13;10456625;27;96878;-79
2024/01/08 14:09:57;;;;;;;8.07;4.00;;;;;;;8.26;69.50;100732.81;10456247;27;97511;-79
2024/01/08 14:15:01;;;;;;;8.57;4.13;;;;;;;8.14;69.75;100742.69;10456238;27;96571;-79
2024/01/08 14:20:08;;;;;;;9.05;4.43;;;;;;;8.06;70.56;100748.13;10456698;27;96706;-79
2024/01/08 14:25:12;;;;;;;7.93;4.22;;;;;;;8.14;70.41;100740.06;10455601;27;96955;-79
2024/01/08 14:30:17;;;;;;;7.05;3.70;;;;;;;8.20;69.66;100750.44;10455384;27;96699;-79
2024/01/08 14:35:22;;;;;;;5.40;3.58;;;;;;;8.25;70.10;100744.22;10454502;27;97270;-79
2024/01/08 14:40:28;;;;;;;7.40;3.45;;;;;;;8.12;70.35;100752.38;10455268;27;97207;-79
2024/01/08 14:45:32;;;;;;;7.00;3.97;;;;;;;8.12;70.55;100750.59;10455358;27;96531;-80
2024/01/08 14:50:37;;;;;;;5.93;4.00;;;;;;;8.05;70.58;100743.75;10454772;27;96717;-80
2024/01/08 14:55:40;;;;;;;7.15;3.92;;;;;;;7.90;72.13;100725.75;10454651;27;97125;-79
2024/01/08 15:00:44;;;;;;;9.20;4.35;;;;;;;7.82;72.78;100741.63;10455003;27;97722;-79
2024/01/08 15:05:49;;;;;;;8.13;3.70;;;;;;;7.82;73.05;100749.50;10453370;27;96733;-80
2024/01/08 15:10:52;;;;;;;8.07;3.83;;;;;;;7.84;72.80;100744.22;10454882;27;96687;-81
2024/01/08 15:15:56;;;;;;;9.10;3.95;;;;;;;7.79;72.92;100740.81;10454281;27;96881;-80
2024/01/08 15:21:03;;;;;;;7.68;3.88;;;;;;;7.70;73.33;100747.13;10454337;27;97313;-81
2024/01/08 15:26:06;;;;;;;7.63;3.85;;;;;;;7.65;74.16;100753.34;10452560;27;96760;-81
2024/01/08 15:31:12;;;;;;;8.45;3.60;;;;;;;7.66;74.40;100753.34;10453830;27;96937;-81
2024/01/08 15:36:19;;;;;;;8.75;3.80;;;;;;;7.60;74.48;100744.72;10454150;27;97330;-81
2024/01/08 15:41:23;;;;;;;8.05;4.10;;;;;;;7.61;74.79;100743.84;10460530;27;96617;-80
2024/01/08 15:46:27;;;;;;;7.10;3.63;;;;;;;7.56;74.83;100743.91;10460885;27;96656;-80
2024/01/08 15:51:32;;;;;;;8.43;4.00;;;;;;;7.66;74.66;100752.47;10436149;27;96956;-81
2024/01/08 15:56:35;;;;;;;9.05;4.35;;;;;;;7.55;75.30;100746.56;10484243;27;96670;-81
2024/01/08 16:01:39;;;;;;;7.25;4.15;;;;;;;7.51;75.49;100764.09;10491347;27;96852;-81
2024/01/08 16:06:45;;;;;;;8.63;4.10;;;;;;;7.51;75.25;100771.94;10459700;27;97155;-81
2024/01/08 16:11:52;;;;;;;7.45;4.40;;;;;;;7.51;75.84;100761.47;10460188;27;96665;-82
2024/01/08 16:16:56;;;;;;;8.05;3.90;;;;;;;7.37;76.27;100760.84;10459478;27;96674;-81
2024/01/08 16:22:01;;;;;;;6.88;4.00;;;;;;;7.39;76.62;100774.78;10459287;27;96727;-81
2024/01/08 16:27:05;;;;;;;6.88;3.97;;;;;;;7.35;77.13;100774.88;10460134;27;97118;-82
2024/01/08 16:32:08;;;;;;;5.90;4.25;;;;;;;7.32;77.25;100772.34;10459858;27;97199;-81
2024/01/08 16:37:16;;;;;;;9.82;4.82;;;;;;;7.33;76.95;100774.91;10459347;27;96803;-82
2024/01/08 16:42:20;;;;;;;9.25;4.82;;;;;;;7.30;77.69;100776.72;10459169;27;97115;-81
2024/01/08 16:47:26;;;;;;;11.73;5.63;;;;;;;7.31;77.88;100775.81;10458954;27;96683;-81
2024/01/08 16:52:34;;;;;;;9.75;4.72;;;;;;;7.31;77.75;100784.56;10461583;27;96673;-81
2024/01/08 16:57:38;;;;;;;7.32;4.20;;;;;;;7.30;78.07;100780.22;10473381;27;96759;-81
2024/01/08 17:02:44;;;;;;;7.82;3.92;;;;;;;7.26;78.07;100781.16;10458820;27;96775;-81
2024/01/08 17:07:51;;;;;;;8.45;4.65;;;;;;;7.23;78.90;100782.97;10456681;27;96899;-81
2024/01/08 17:12:57;;;;;;;9.90;5.20;;;;;;;7.25;78.74;100786.41;10458038;27;96715;-81
2024/01/08 17:18:01;;;;;;;7.97;4.57;;;;;;;7.19;79.53;100789.13;10458620;27;97363;-81
2024/01/08 17:23:08;;;;;;;8.88;5.10;;;;;;;7.23;79.47;100780.34;10458366;27;96953;-81
2024/01/08 17:28:13;;;;;;;12.00;6.07;;;;;;;7.25;79.64;100782.03;10457956;27;97133;-81
2024/01/08 17:33:18;;;;;;;10.85;5.03;;;;;;;7.19;80.18;100771.69;10457769;27;96659;-81
2024/01/08 17:38:27;;;;;;;7.37;4.40;;;;;;;7.16;80.68;100763.91;10457947;27;97111;-81
2024/01/08 17:43:32;;;;;;;9.65;5.72;;;;;;;7.17;80.85;100751.66;10458383;27;97077;-81
2024/01/08 17:48:36;;;;;;;8.80;4.65;;;;;;;7.11;81.46;100741.31;10456644;27;96782;-81
2024/01/08 17:53:44;;;;;;;8.82;5.22;;;;;;;7.12;81.74;100733.44;10457382;27;97134;-80
2024/01/08 17:58:49;;;;;;;10.07;5.07;;;;;;;7.11;81.66;100723.88;10455428;27;97011;-80
2024/01/08 18:03:54;;;;;;;13.23;6.57;;;;;;;7.08;82.42;100728.28;10456351;27;96690;-80
2024/01/08 18:09:00;;;;;;;9.77;5.57;;;;;;;7.10;82.47;100729.09;10455912;27;96631;-81
2024/01/08 18:14:04;;;;;;;8.93;5.43;;;;;;;7.07;82.70;100739.63;10456660;27;97251;-81
2024/01/08 18:19:07;;;;;;;12.43;6.38;;;;;;;7.09;82.80;100740.47;10456160;27;96953;-81
2024/01/08 18:24:13;;;;;;;14.68;6.30;;;;;;;7.17;82.06;100739.44;10455559;27;97558;-81
2024/01/08 18:29:33;;;;;;;13.07;5.93;;;;;;;7.17;82.37;100744.66;10455512;27;96677;-80
2024/01/08 18:34:37;;;;;;;9.93;6.30;;;;;;;7.25;81.45;100739.31;10456362;27;97163;-81
2024/01/08 18:39:42;;;;;;;14.80;6.63;;;;;;;7.28;81.43;100739.25;10455328;27;96656;-80
2024/01/08 18:44:45;;;;;;;15.27;7.18;;;;;;;7.25;81.46;100755.84;10455132;27;97184;-80
2024/01/08 18:49:49;;;;;;;19.50;7.30;;;;;;;7.20;82.05;100749.00;10469362;27;96655;-80
2024/01/08 18:54:55;;;;;;;13.77;6.93;;;;;;;7.21;82.27;100742.88;10483822;27;97376;-80
2024/01/08 19:00:01;;;;;;;12.25;7.03;;;;;;;7.26;82.27;100733.16;10454589;27;96767;-81
2024/01/08 19:05:07;;;;;;;13.27;7.47;;;;;;;7.19;82.72;100716.72;10454300;27;96799;-82
2024/01/08 19:10:12;;;;;;;;;;;;;;;7.17;82.55;100707.16;10454732;27;96643;-81
2024/01/08 19:15:16;;;;;;;12.40;6.45;;;;;;;7.10;83.45;100698.56;10453283;27;97143;-81
2024/01/08 19:20:19;;;;;;;11.43;6.35;;;;;;;7.07;84.03;100703.88;10453784;27;96732;-81
2024/01/08 19:25:28;;;;;;;13.45;7.53;;;;;;;7.05;84.02;100689.94;10455021;27;96772;-81
2024/01/08 19:30:32;;;;;;;16.13;6.72;;;;;;;7.04;83.95;100671.66;10454004;27;96625;-81
2024/01/08 19:35:36;;;;;;;13.30;6.90;;;;;;;7.07;83.63;100677.69;10453651;27;96852;-81
2024/01/08 19:40:41;;;;;;;11.68;6.57;;;;;;;7.03;83.87;100676.03;10452959;27;97166;-80
2024/01/08 19:45:44;;;;;;;8.98;4.88;;;;;;;7.08;83.52;100652.41;10453677;27;97107;-80
2024/01/08 19:50:48;;;;;;;9.60;5.50;;;;;;;7.16;82.71;100666.19;10453085;27;96805;-80
2024/01/08 19:55:53;;;;;;;13.65;6.70;;;;;;;7.12;83.22;100673.25;10453449;27;96497;-80
2024/01/08 20:00:57;;;;;;;14.55;5.45;;;;;;;7.16;82.58;100668.81;10452771;27;97191;-80
2024/01/08 20:06:00;;;;;;;8.82;6.10;;;;;;;7.17;82.45;100684.47;10452651;27;97047;-79
2024/01/08 20:11:08;;;;;;;9.32;5.40;;;;;;;7.20;82.44;100689.66;10452831;27;98393;-80
2024/01/08 20:16:12;;;;;;;9.52;5.53;;;;;;;7.23;82.29;100687.00;10453605;27;96686;-80
2024/01/08 20:21:16;;;;;;;10.75;5.57;;;;;;;7.27;81.80;100683.41;10452818;27;96732;-80
2024/01/08 20:26:23;;;;;;;12.73;5.10;;;;;;;7.32;81.10;100688.56;10457156;27;96740;-79
2024/01/08 20:31:27;;;;;;;8.35;5.32;;;;;;;7.33;80.89;100685.91;10458823;27;97354;-80
2024/01/08 20:36:31;;;;;;;11.50;5.15;;;;;;;7.30;80.70;100695.59;10459073;27;97029;-80
2024/01/08 20:41:35;;;;;;;10.40;5.35;;;;;;;7.35;80.68;100691.13;10458836;27;96679;-80
2024/01/08 20:46:40;;;;;;;;;;;;;;;7.31;81.12;100697.28;10493710;27;97071;-80
2024/01/08 20:51:43;;;;;;;7.85;4.75;;;;;;;7.27;81.54;100690.41;10502039;27;96896;-80
2024/01/08 20:56:48;;;;;;;9.05;4.90;;;;;;;7.28;81.18;100690.38;10463625;27;96839;-79
2024/01/08 21:01:52;;;;;;;9.25;5.68;;;;;;;7.36;81.31;100692.84;10458748;27;96613;-79
2024/01/08 21:06:56;;;;;;;9.27;5.30;;;;;;;7.35;81.17;100697.22;10458899;27;96747;-79
2024/01/08 21:12:00;;;;;;;11.25;6.03;;;;;;;7.36;80.57;100690.22;10458107;27;97420;-79
2024/01/08 21:17:04;;;;;;;9.13;5.50;;;;;;;7.41;81.00;100699.72;10458243;27;97353;-80
2024/01/08 21:22:10;;;;;;;11.68;5.78;;;;;;;7.42;80.20;100680.50;10456925;27;96751;-79
2024/01/08 21:27:15;;;;;;;10.95;5.78;;;;;;;7.46;80.02;100681.31;10457462;27;96942;-79
2024/01/08 21:32:19;;;;;;;14.48;5.80;;;;;;;7.41;80.23;100686.63;10457385;27;97021;-79
2024/01/08 21:37:22;;;;;;;12.27;5.93;;;;;;;7.43;79.93;100678.72;10455944;27;96731;-79
2024/01/08 21:42:27;;;;;;;7.97;4.90;;;;;;;7.44;79.52;100683.09;10470586;27;96536;-79
2024/01/08 21:47:31;;;;;;;10.00;6.15;;;;;;;7.45;79.85;100680.44;10463849;27;96712;-79
2024/01/08 21:52:35;;;;;;;15.48;5.90;;;;;;;7.44;79.16;100673.47;10457152;27;97600;-79
2024/01/08 21:57:40;;;;;;;7.72;4.88;;;;;;;7.45;79.40;100676.94;10457562;27;97420;-79
2024/01/08 22:02:44;;;;;;;9.57;5.55;;;;;;;7.52;79.48;100684.66;10456192;27;97502;-79
2024/01/08 22:07:47;;;;;;;10.95;5.72;;;;;;;7.52;79.46;100700.38;10455520;27;96699;-79
2024/01/08 22:12:52;;;;;;;7.97;4.93;;;;;;;7.58;78.95;100710.69;10455415;27;96844;-79
2024/01/08 22:17:56;;;;;;;9.85;5.25;;;;;;;7.65;78.26;100712.31;10456031;27;96749;-79
2024/01/08 22:22:59;;;;;;;9.00;4.57;;;;;;;7.66;78.40;100713.19;10456065;27;96737;-79
2024/01/08 22:28:05;;;;;;;10.77;4.93;;;;;;;7.67;77.87;100722.75;10455516;27;97254;-79
2024/01/08 22:33:08;;;;;;;7.65;4.55;;;;;;;7.66;77.69;100723.66;10455789;27;96912;-79
2024/01/08 22:38:12;;;;;;;7.90;4.55;;;;;;;7.60;78.14;100714.16;10465524;22;96861;-79
2024/01/08 22:43:17;;;;;;;10.18;5.25;;;;;;;7.65;77.75;100714.06;10454620;27;96578;-79
2024/01/08 22:48:21;;;;;;;7.20;4.63;;;;;;;7.63;77.80;100715.88;10456198;27;96645;-79
2024/01/08 22:53:24;;;;;;;8.90;4.32;;;;;;;7.61;78.13;100713.28;10454256;27;97338;-79
2024/01/08 22:58:29;;;;;;;6.47;4.13;;;;;;;7.62;78.54;100727.22;10454295;27;96778;-79
2024/01/08 23:03:33;;;;;;;5.68;4.07;;;;;;;7.57;78.37;100718.59;10454280;27;97195;-79
2024/01/08 23:08:36;;;;;;;6.30;3.88;;;;;;;7.60;78.15;100723.75;10453920;27;96698;-79
2024/01/08 23:13:41;;;;;;;8.10;4.45;;;;;;;7.63;78.07;100719.31;10454758;27;97071;-79
2024/01/08 23:18:45;;;;;;;7.28;3.53;;;;;;;7.66;78.66;100723.66;10454643;27;97031;-79
2024/01/08 23:23:48;;;;;;;7.30;3.72;;;;;;;7.64;78.13;100725.44;10454401;27;96565;-79
2024/01/08 23:28:53;;;;;;;7.32;4.18;;;;;;;7.68;78.40;100721.88;10453768;27;96679;-79
2024/01/08 23:33:59;;;;;;;6.28;3.65;;;;;;;7.71;78.42;100722.66;10485431;27;96667;-79
2024/01/08 23:39:16;;;;;;;7.65;3.80;;;;;;;7.72;78.19;100739.22;10496273;27;96649;-79